Time;durP1;ratioP1;P1;durP2;ratioP2;P2;SDS_P1;SDS_P2;PMS_P1;PMS_P2;Temp;Humidity;BMP_temperature;BMP_pressure;BME280_temperature;BME280_humidity;BME280_pressure;Samples;Min_cycle;Max_cycle;Signal;HPM_P1;HPM_P2
2022/01/02 00:01:24;;;;;;;5.37;3.70;;;;;;;;;;5014738;28;20470;-53
2022/01/02 00:03:52;;;;;;;5.00;4.03;;;;;;;;;;5014605;28;20440;-53
2022/01/02 00:06:25;;;;;;;6.30;2.90;;;;;;;;;;5014493;28;20965;-54
2022/01/02 00:09:01;;;;;;;10.93;3.30;;;;;;;;;;5014476;28;20816;-54
2022/01/02 00:11:28;;;;;;;4.73;3.07;;;;;;;;;;5014679;28;20632;-54
2022/01/02 00:13:57;;;;;;;9.97;3.50;;;;;;;;;;5014608;28;20412;-54
2022/01/02 00:16:24;;;;;;;3.10;2.87;;;;;;;;;;5014506;28;20769;-54
2022/01/02 00:19:03;;;;;;;6.10;4.07;;;;;;;;;;5014112;28;20981;-54
2022/01/02 00:21:32;;;;;;;3.43;3.13;;;;;;;;;;5014383;28;20793;-54
2022/01/02 00:24:01;;;;;;;5.10;3.40;;;;;;;;;;5014415;28;20522;-53
2022/01/02 00:26:43;;;;;;;6.70;4.53;;;;;;;;;;5014168;28;20984;-53
2022/01/02 00:29:09;;;;;;;5.80;3.67;;;;;;;;;;5014238;28;20420;-53
2022/01/02 00:31:36;;;;;;;4.37;3.70;;;;;;;;;;5014174;28;20414;-54
2022/01/02 00:34:03;;;;;;;3.67;3.33;;;;;;;;;;5014355;28;20407;-53
2022/01/02 00:36:29;;;;;;;4.03;3.63;;;;;;;;;;5013775;28;20410;-54
2022/01/02 00:38:55;;;;;;;4.90;3.63;;;;;;;;;;5013955;28;20506;-54
2022/01/02 00:41:23;;;;;;;3.83;3.43;;;;;;;;;;5013818;28;20763;-53
2022/01/02 00:43:57;;;;;;;3.90;3.57;;;;;;;;;;5014025;28;20412;-53
2022/01/02 00:46:23;;;;;;;3.50;3.00;;;;;;;;;;5013904;28;20775;-53
2022/01/02 00:48:51;;;;;;;5.07;3.53;;;;;;;;;;5013515;28;20905;-53
2022/01/02 00:51:46;;;;;;;6.23;3.93;;;;;;;;;;5013914;28;20453;-53
2022/01/02 00:54:14;;;;;;;3.83;3.43;;;;;;;;;;5008398;28;21068;-53
2022/01/02 00:56:43;;;;;;;4.30;2.80;;;;;;;;;;5013440;28;20899;-53
2022/01/02 00:59:11;;;;;;;3.37;3.07;;;;;;;;;;5013526;28;20960;-53
2022/01/02 01:01:37;;;;;;;8.97;3.30;;;;;;;;;;5013530;28;20406;-53
2022/01/02 01:04:03;;;;;;;3.77;2.80;;;;;;;;;;5012364;28;20468;-54
2022/01/02 01:06:33;;;;;;;7.17;3.90;;;;;;;;;;5013407;28;20439;-54
2022/01/02 01:09:02;;;;;;;3.83;3.40;;;;;;;;;;5013468;28;20789;-53
2022/01/02 01:11:28;;;;;;;9.33;3.80;;;;;;;;;;5013490;28;20909;-53
2022/01/02 01:13:55;;;;;;;5.50;3.20;;;;;;;;;;5013416;28;20407;-54
2022/01/02 01:16:21;;;;;;;11.80;3.30;;;;;;;;;;5013320;28;20400;-53
2022/01/02 01:18:48;;;;;;;9.40;3.30;;;;;;;;;;5012802;28;20425;-53
2022/01/02 01:21:14;;;;;;;3.17;2.93;;;;;;;;;;5013506;28;20813;-53
2022/01/02 01:23:41;;;;;;;4.40;3.53;;;;;;;;;;5013244;28;20616;-53
2022/01/02 01:26:09;;;;;;;3.50;3.20;;;;;;;;;;5013217;28;20405;-53
2022/01/02 01:28:35;;;;;;;3.60;2.83;;;;;;;;;;5012726;28;20461;-53
2022/01/02 01:31:01;;;;;;;2.90;2.70;;;;;;;;;;5013071;28;20967;-52
2022/01/02 01:33:27;;;;;;;4.23;2.67;;;;;;;;;;5012970;28;20507;-52
2022/01/02 01:35:53;;;;;;;3.90;2.97;;;;;;;;;;5013030;28;20437;-54
2022/01/02 01:38:19;;;;;;;6.33;3.10;;;;;;;;;;5012585;28;20784;-53
2022/01/02 01:40:58;;;;;;;5.10;2.90;;;;;;;;;;5012867;28;20465;-52
2022/01/02 01:43:37;;;;;;;4.47;2.77;;;;;;;;;;5012959;28;20401;-53
2022/01/02 01:46:04;;;;;;;5.93;3.30;;;;;;;;;;5012873;28;20529;-53
2022/01/02 01:48:29;;;;;;;4.80;3.13;;;;;;;;;;5012435;28;20432;-53
2022/01/02 01:50:56;;;;;;;6.33;3.27;;;;;;;;;;5012784;28;20408;-53
2022/01/02 01:53:22;;;;;;;5.43;2.90;;;;;;;;;;5012905;28;20413;-53
2022/01/02 01:55:48;;;;;;;2.83;2.60;;;;;;;;;;5012614;28;20439;-53
2022/01/02 01:58:14;;;;;;;4.80;3.30;;;;;;;;;;5012274;28;20528;-53
2022/01/02 02:00:40;;;;;;;5.63;2.80;;;;;;;;;;5011891;28;20458;-53
2022/01/02 02:03:06;;;;;;;4.57;3.03;;;;;;;;;;5012151;28;20412;-53
2022/01/02 02:05:33;;;;;;;7.27;3.40;;;;;;;;;;5011958;28;20405;-53
2022/01/02 02:07:59;;;;;;;3.23;2.90;;;;;;;;;;5012213;28;20568;-53
2022/01/02 02:10:28;;;;;;;5.73;2.70;;;;;;;;;;5012474;28;20440;-53
2022/01/02 02:12:55;;;;;;;4.57;2.70;;;;;;;;;;5012477;28;20761;-53
2022/01/02 02:15:22;;;;;;;5.20;3.00;;;;;;;;;;5011993;28;20886;-54
2022/01/02 02:17:49;;;;;;;5.00;2.60;;;;;;;;;;5012003;28;20432;-53
2022/01/02 02:20:23;;;;;;;6.10;2.83;;;;;;;;;;5012338;28;20552;-54
2022/01/02 02:22:52;;;;;;;4.80;2.70;;;;;;;;;;4994725;28;20416;-54
2022/01/02 02:25:19;;;;;;;3.50;2.50;;;;;;;;;;5012292;28;20411;-53
2022/01/02 02:27:49;;;;;;;6.30;2.67;;;;;;;;;;5011820;28;20422;-53
2022/01/02 02:30:15;;;;;;;3.53;2.63;;;;;;;;;;5012207;28;20403;-53
2022/01/02 02:32:41;;;;;;;11.33;2.87;;;;;;;;;;5012109;28;20532;-54
2022/01/02 02:35:07;;;;;;;3.20;2.90;;;;;;;;;;5012106;28;20404;-53
2022/01/02 02:37:33;;;;;;;3.30;2.93;;;;;;;;;;5012233;28;20499;-54
2022/01/02 02:40:00;;;;;;;6.70;2.13;;;;;;;;;;5011806;28;20452;-53
2022/01/02 02:42:42;;;;;;;5.50;2.57;;;;;;;;;;5012170;28;20452;-53
2022/01/02 02:48:59;;;;;;;3.97;2.63;;;;;;;;;;5012065;28;20459;-53
2022/01/02 02:50:47;;;;;;;7.53;3.00;;;;;;;;;;5012216;28;20433;-53
2022/01/02 02:53:16;;;;;;;3.93;2.60;;;;;;;;;;5012035;28;20393;-53
2022/01/02 02:55:48;;;;;;;3.73;2.53;;;;;;;;;;5012255;28;20401;-53
2022/01/02 02:58:41;;;;;;;5.63;3.10;;;;;;;;;;5011631;28;20502;-54
2022/01/02 03:01:03;;;;;;;3.80;2.87;;;;;;;;;;5011617;28;20515;-53
2022/01/02 03:03:29;;;;;;;4.83;3.83;;;;;;;;;;5011858;28;20401;-53
2022/01/02 03:05:55;;;;;;;6.67;2.87;;;;;;;;;;5011839;28;20938;-53
2022/01/02 03:08:21;;;;;;;8.43;3.07;;;;;;;;;;5011486;28;20451;-53
2022/01/02 03:10:47;;;;;;;4.93;2.77;;;;;;;;;;5011839;28;20459;-54
2022/01/02 03:13:13;;;;;;;3.40;2.03;;;;;;;;;;5011746;28;20405;-53
2022/01/02 03:15:39;;;;;;;6.60;3.20;;;;;;;;;;5011688;28;20412;-53
2022/01/02 03:18:05;;;;;;;5.90;2.80;;;;;;;;;;5011360;28;20471;-53
2022/01/02 03:20:31;;;;;;;2.67;2.40;;;;;;;;;;5011643;28;20542;-53
2022/01/02 03:22:57;;;;;;;3.67;2.50;;;;;;;;;;5011618;28;20490;-54
2022/01/02 03:25:23;;;;;;;5.07;3.63;;;;;;;;;;5011690;28;20402;-53
2022/01/02 03:27:49;;;;;;;5.23;2.80;;;;;;;;;;5012638;28;20426;-53
2022/01/02 03:30:15;;;;;;;5.13;3.20;;;;;;;;;;5015316;28;20455;-53
2022/01/02 03:32:41;;;;;;;9.77;3.47;;;;;;;;;;5015291;28;20417;-54
2022/01/02 03:35:07;;;;;;;3.80;3.20;;;;;;;;;;5015261;28;20403;-54
2022/01/02 03:37:34;;;;;;;5.13;3.23;;;;;;;;;;5014877;28;20525;-53
2022/01/02 03:40:05;;;;;;;6.23;3.50;;;;;;;;;;5054596;23;20494;-55
2022/01/02 03:42:31;;;;;;;5.00;3.03;;;;;;;;;;5074969;28;20409;-55
2022/01/02 03:45:00;;;;;;;9.10;3.83;;;;;;;;;;5074857;28;20396;-55
2022/01/02 03:47:26;;;;;;;4.33;3.00;;;;;;;;;;5074560;28;20409;-55
2022/01/02 03:49:52;;;;;;;6.60;3.20;;;;;;;;;;5056579;28;20434;-54
2022/01/02 03:52:18;;;;;;;4.47;3.67;;;;;;;;;;5056719;28;20405;-55
2022/01/02 03:54:44;;;;;;;10.67;3.87;;;;;;;;;;5074815;28;20828;-54
2022/01/02 03:57:10;;;;;;;5.30;3.30;;;;;;;;;;5074405;28;20410;-54
2022/01/02 03:59:36;;;;;;;4.67;3.57;;;;;;;;;;5074420;28;20494;-55
2022/01/02 04:02:02;;;;;;;6.70;4.43;;;;;;;;;;5074513;28;20833;-54
2022/01/02 04:04:28;;;;;;;7.90;4.00;;;;;;;;;;5056565;28;20412;-54
2022/01/02 04:06:54;;;;;;;4.23;3.30;;;;;;;;;;5074305;28;20402;-54
2022/01/02 04:09:20;;;;;;;3.00;2.80;;;;;;;;;;5074333;28;20859;-54
2022/01/02 04:11:46;;;;;;;7.03;2.93;;;;;;;;;;5074393;28;20405;-54
2022/01/02 04:14:12;;;;;;;4.47;2.60;;;;;;;;;;5074338;28;20413;-54
2022/01/02 04:16:39;;;;;;;6.93;3.23;;;;;;;;;;5074002;28;20409;-54
2022/01/02 04:19:05;;;;;;;5.97;2.90;;;;;;;;;;5074099;28;21027;-54
2022/01/02 04:21:31;;;;;;;6.50;3.33;;;;;;;;;;5074247;28;20457;-54
2022/01/02 04:23:57;;;;;;;6.73;2.67;;;;;;;;;;5074170;28;20438;-54
2022/01/02 04:26:23;;;;;;;10.03;2.67;;;;;;;;;;5073980;28;20454;-54
2022/01/02 04:28:50;;;;;;;5.00;3.23;;;;;;;;;;5073735;28;20405;-53
2022/01/02 04:31:16;;;;;;;7.03;2.73;;;;;;;;;;5073688;28;20482;-54
2022/01/02 04:33:42;;;;;;;10.60;3.50;;;;;;;;;;5073977;28;20915;-54
2022/01/02 04:36:08;;;;;;;4.70;2.90;;;;;;;;;;5055970;28;20418;-54
2022/01/02 04:38:36;;;;;;;4.10;2.77;;;;;;;;;;5073367;28;20404;-54
2022/01/02 04:41:02;;;;;;;7.90;3.97;;;;;;;;;;5073778;28;20487;-53
2022/01/02 04:43:29;;;;;;;11.00;3.83;;;;;;;;;;5073749;28;20406;-54
2022/01/02 04:45:56;;;;;;;13.50;3.73;;;;;;;;;;5073806;28;20408;-53
2022/01/02 04:48:22;;;;;;;7.30;3.20;;;;;;;;;;5073496;28;20407;-54
2022/01/02 04:50:48;;;;;;;8.93;3.47;;;;;;;;;;5073396;28;20460;-54
2022/01/02 04:53:14;;;;;;;3.80;3.40;;;;;;;;;;5073517;28;20468;-53
2022/01/02 04:55:40;;;;;;;8.73;3.70;;;;;;;;;;5073494;28;20409;-54
2022/01/02 04:58:06;;;;;;;10.83;3.73;;;;;;;;;;5073083;28;20531;-54
2022/01/02 05:00:32;;;;;;;4.20;3.10;;;;;;;;;;5073294;28;20977;-54
2022/01/02 05:02:58;;;;;;;13.17;3.67;;;;;;;;;;5073399;28;20786;-53
2022/01/02 05:05:24;;;;;;;3.80;3.40;;;;;;;;;;5073409;28;20401;-53
2022/01/02 05:07:50;;;;;;;9.33;3.90;;;;;;;;;;5072872;28;20399;-53
2022/01/02 05:10:16;;;;;;;6.17;3.60;;;;;;;;;;5073180;28;20422;-53
2022/01/02 05:12:42;;;;;;;7.77;4.27;;;;;;;;;;5073133;28;20404;-53
2022/01/02 05:15:08;;;;;;;7.50;3.40;;;;;;;;;;5073119;28;20488;-53
2022/01/02 05:17:34;;;;;;;6.40;3.77;;;;;;;;;;5072825;28;20412;-53
2022/01/02 05:20:01;;;;;;;5.43;3.80;;;;;;;;;;5072907;28;20472;-53
2022/01/02 05:22:27;;;;;;;5.93;3.33;;;;;;;;;;5072835;28;20427;-53
2022/01/02 05:24:53;;;;;;;9.57;4.67;;;;;;;;;;5072935;28;20768;-53
2022/01/02 05:27:19;;;;;;;7.10;2.77;;;;;;;;;;5072728;28;20408;-53
2022/01/02 05:29:45;;;;;;;7.47;3.50;;;;;;;;;;5072744;28;20418;-53
2022/01/02 05:32:11;;;;;;;7.17;3.37;;;;;;;;;;5072848;28;20408;-53
2022/01/02 05:34:37;;;;;;;10.53;3.37;;;;;;;;;;5072719;28;20538;-53
2022/01/02 05:37:03;;;;;;;10.57;3.20;;;;;;;;;;5072318;28;20405;-53
2022/01/02 05:39:29;;;;;;;7.60;3.20;;;;;;;;;;5072353;28;20473;-54
2022/01/02 05:41:54;;;;;;;8.40;4.13;;;;;;;;;;5072620;28;20397;-53
2022/01/02 05:44:21;;;;;;;9.73;4.07;;;;;;;;;;5072637;28;20811;-53
2022/01/02 05:46:47;;;;;;;9.10;3.47;;;;;;;;;;5072248;28;20408;-53
2022/01/02 05:49:13;;;;;;;5.00;3.27;;;;;;;;;;5072458;28;20399;-53
2022/01/02 05:51:39;;;;;;;18.47;4.47;;;;;;;;;;5071707;28;20400;-53
2022/01/02 05:54:06;;;;;;;8.37;4.00;;;;;;;;;;5072412;28;20451;-53
2022/01/02 05:56:32;;;;;;;14.83;3.73;;;;;;;;;;5072075;28;20957;-55
2022/01/02 05:58:58;;;;;;;7.47;3.90;;;;;;;;;;5072234;28;20407;-54
2022/01/02 06:01:24;;;;;;;8.43;3.87;;;;;;;;;;5072194;28;20428;-53
2022/01/02 06:03:50;;;;;;;7.10;3.83;;;;;;;;;;5072211;28;20423;-54
2022/01/02 06:06:16;;;;;;;3.83;3.40;;;;;;;;;;5054164;28;20454;-54
2022/01/02 06:08:42;;;;;;;5.87;3.70;;;;;;;;;;5071937;28;20538;-54
2022/01/02 06:11:08;;;;;;;12.17;4.60;;;;;;;;;;5072189;28;20433;-54
2022/01/02 06:13:34;;;;;;;9.80;4.17;;;;;;;;;;5072014;28;20459;-54
2022/01/02 06:16:00;;;;;;;9.90;4.17;;;;;;;;;;5072076;28;20429;-54
2022/01/02 06:18:25;;;;;;;10.67;4.60;;;;;;;;;;5071789;28;20808;-53
2022/01/02 06:20:51;;;;;;;10.10;4.50;;;;;;;;;;5071754;28;20467;-53
2022/01/02 06:23:17;;;;;;;11.57;4.70;;;;;;;;;;5071972;28;20403;-55
2022/01/02 06:25:44;;;;;;;11.97;3.90;;;;;;;;;;5071878;28;20447;-55
2022/01/02 06:28:10;;;;;;;4.60;4.20;;;;;;;;;;5071778;28;20436;-54
2022/01/02 06:30:36;;;;;;;8.93;5.00;;;;;;;;;;5071811;28;20427;-54
2022/01/02 06:33:03;;;;;;;9.90;5.30;;;;;;;;;;5071862;28;20408;-54
2022/01/02 06:35:31;;;;;;;5.43;4.23;;;;;;;;;;5071807;28;20463;-54
2022/01/02 06:37:58;;;;;;;12.23;4.37;;;;;;;;;;5071503;28;20408;-53
2022/01/02 06:40:24;;;;;;;6.23;4.53;;;;;;;;;;5071509;28;20991;-53
2022/01/02 06:42:50;;;;;;;8.00;4.53;;;;;;;;;;5071762;28;20488;-53
2022/01/02 06:45:16;;;;;;;6.90;4.53;;;;;;;;;;5071733;28;20447;-53
2022/01/02 06:47:43;;;;;;;9.73;3.90;;;;;;;;;;5071421;28;20401;-54
2022/01/02 06:50:11;;;;;;;5.60;4.27;;;;;;;;;;5071492;28;20466;-53
2022/01/02 06:52:37;;;;;;;5.80;4.70;;;;;;;;;;5071733;28;20480;-54
2022/01/02 06:55:03;;;;;;;10.00;4.90;;;;;;;;;;5071615;28;20462;-53
2022/01/02 06:57:29;;;;;;;8.77;4.73;;;;;;;;;;5071315;28;20406;-53
2022/01/02 06:59:55;;;;;;;8.63;4.63;;;;;;;;;;5071487;28;20498;-53
2022/01/02 07:02:21;;;;;;;7.20;5.33;;;;;;;;;;5074312;28;20397;-54
2022/01/02 07:04:47;;;;;;;9.67;4.60;;;;;;;;;;5075645;28;20880;-53
2022/01/02 07:07:13;;;;;;;13.17;5.20;;;;;;;;;;5075533;28;20401;-53
2022/01/02 07:09:39;;;;;;;9.90;4.60;;;;;;;;;;5075554;28;20453;-54
2022/01/02 07:12:06;;;;;;;8.30;4.03;;;;;;;;;;5075445;28;20401;-54
2022/01/02 07:14:32;;;;;;;8.63;4.87;;;;;;;;;;5075445;28;20784;-54
2022/01/02 07:17:00;;;;;;;9.73;4.23;;;;;;;;;;5074955;28;20500;-54
2022/01/02 07:19:26;;;;;;;4.00;3.53;;;;;;;;;;5075442;28;20452;-54
2022/01/02 07:21:52;;;;;;;9.90;4.30;;;;;;;;;;5075265;28;20404;-53
2022/01/02 07:24:19;;;;;;;5.97;4.37;;;;;;;;;;5075597;28;20940;-53
2022/01/02 07:26:45;;;;;;;4.90;3.77;;;;;;;;;;5075010;28;20397;-54
2022/01/02 07:29:11;;;;;;;5.23;4.30;;;;;;;;;;5075041;28;20406;-54
2022/01/02 07:31:37;;;;;;;11.97;3.60;;;;;;;;;;5075061;28;20401;-53
2022/01/02 07:34:04;;;;;;;13.10;4.27;;;;;;;;;;5074637;28;20936;-54
2022/01/02 07:36:30;;;;;;;7.87;4.50;;;;;;;;;;5074402;28;20402;-55
2022/01/02 07:38:57;;;;;;;9.40;4.23;;;;;;;;;;5074559;28;20995;-53
2022/01/02 07:41:22;;;;;;;6.53;4.93;;;;;;;;;;5055725;28;20470;-53
2022/01/02 07:43:48;;;;;;;6.97;4.80;;;;;;;;;;5074165;28;20446;-55
2022/01/02 07:46:14;;;;;;;7.60;4.10;;;;;;;;;;5074190;28;20403;-54
2022/01/02 07:48:40;;;;;;;5.90;4.57;;;;;;;;;;5074256;28;20407;-54
2022/01/02 07:51:06;;;;;;;18.03;3.80;;;;;;;;;;5074692;28;20424;-54
2022/01/02 07:53:32;;;;;;;7.33;4.40;;;;;;;;;;5074165;28;20872;-54
2022/01/02 07:55:58;;;;;;;9.77;4.37;;;;;;;;;;5074613;28;20772;-54
2022/01/02 07:58:24;;;;;;;5.60;4.13;;;;;;;;;;5073637;28;20397;-54
2022/01/02 08:00:50;;;;;;;4.17;3.23;;;;;;;;;;5077846;28;20670;-54
2022/01/02 08:03:17;;;;;;;8.40;3.80;;;;;;;;;;5074729;28;20539;-54
2022/01/02 08:05:44;;;;;;;4.70;4.10;;;;;;;;;;5074552;28;20402;-53
2022/01/02 08:08:10;;;;;;;7.63;3.90;;;;;;;;;;5074034;28;20906;-54
2022/01/02 08:10:38;;;;;;;10.03;4.90;;;;;;;;;;5074351;28;20937;-54
2022/01/02 08:13:04;;;;;;;6.57;3.90;;;;;;;;;;5073695;28;20405;-54
2022/01/02 08:15:32;;;;;;;4.50;3.50;;;;;;;;;;5074146;28;20421;-54
2022/01/02 08:17:58;;;;;;;5.00;3.23;;;;;;;;;;5073992;28;20884;-54
2022/01/02 08:20:24;;;;;;;4.80;3.27;;;;;;;;;;5074046;28;20485;-54
2022/01/02 08:22:50;;;;;;;10.00;4.60;;;;;;;;;;5074186;28;20417;-54
2022/01/02 08:25:16;;;;;;;6.90;3.90;;;;;;;;;;5074625;28;20455;-54
2022/01/02 08:27:42;;;;;;;9.23;3.40;;;;;;;;;;5073767;28;20402;-54
2022/01/02 08:30:08;;;;;;;5.17;3.50;;;;;;;;;;5073948;28;20931;-55
2022/01/02 08:32:34;;;;;;;5.60;2.70;;;;;;;;;;5073847;28;20445;-54
2022/01/02 08:35:00;;;;;;;5.63;3.87;;;;;;;;;;5073953;28;20406;-55
2022/01/02 08:37:26;;;;;;;5.40;3.37;;;;;;;;;;5073483;28;20433;-55
2022/01/02 08:39:52;;;;;;;3.73;3.30;;;;;;;;;;5073564;28;21004;-54
2022/01/02 08:42:18;;;;;;;8.23;3.77;;;;;;;;;;5073575;28;20404;-54
2022/01/02 08:44:44;;;;;;;9.27;3.43;;;;;;;;;;5073633;28;20911;-54
2022/01/02 08:47:11;;;;;;;4.00;2.70;;;;;;;;;;5073444;28;20397;-54
2022/01/02 08:49:37;;;;;;;9.63;3.30;;;;;;;;;;5073579;28;20424;-54
2022/01/02 08:52:03;;;;;;;7.53;3.70;;;;;;;;;;5073546;28;20406;-54
2022/01/02 08:54:29;;;;;;;7.30;3.03;;;;;;;;;;5073591;28;20590;-54
2022/01/02 08:56:55;;;;;;;6.23;3.10;;;;;;;;;;5073220;28;20410;-54
2022/01/02 08:59:24;;;;;;;4.30;3.00;;;;;;;;;;5071937;28;20417;-54
2022/01/02 09:01:51;;;;;;;3.50;3.20;;;;;;;;;;5073408;28;20403;-54
2022/01/02 09:04:17;;;;;;;4.80;3.57;;;;;;;;;;5073710;28;20720;-53
2022/01/02 09:06:43;;;;;;;4.00;2.87;;;;;;;;;;5072984;28;20931;-53
2022/01/02 09:09:09;;;;;;;3.00;2.70;;;;;;;;;;5073065;28;20394;-54
2022/01/02 09:11:35;;;;;;;5.93;2.87;;;;;;;;;;5073257;28;20493;-54
2022/01/02 09:14:02;;;;;;;3.00;2.70;;;;;;;;;;5072235;28;20425;-55
2022/01/02 09:16:28;;;;;;;7.20;3.20;;;;;;;;;;5071174;28;20396;-54
2022/01/02 09:18:54;;;;;;;2.70;2.50;;;;;;;;;;5071292;28;20441;-54
2022/01/02 09:21:21;;;;;;;4.23;3.37;;;;;;;;;;5071995;28;20460;-54
2022/01/02 09:23:47;;;;;;;3.43;2.97;;;;;;;;;;5072852;28;20431;-54
2022/01/02 09:26:13;;;;;;;2.67;2.47;;;;;;;;;;5071939;28;20497;-54
2022/01/02 09:28:39;;;;;;;3.80;3.20;;;;;;;;;;5072545;28;20423;-54
2022/01/02 09:31:05;;;;;;;6.00;3.27;;;;;;;;;;5072791;28;20994;-54
2022/01/02 09:33:31;;;;;;;4.90;2.73;;;;;;;;;;5072830;28;20491;-54
2022/01/02 09:35:57;;;;;;;3.10;2.90;;;;;;;;;;5072785;28;20402;-54
2022/01/02 09:38:23;;;;;;;2.93;2.60;;;;;;;;;;5072424;28;20424;-55
2022/01/02 09:40:49;;;;;;;3.67;2.60;;;;;;;;;;5065753;22;20487;-55
2022/01/02 09:43:18;;;;;;;4.90;2.80;;;;;;;;;;5032599;28;20427;-54
2022/01/02 09:45:54;;;;;;;3.13;2.70;;;;;;;;;;5069099;28;20511;-55
2022/01/02 09:48:20;;;;;;;4.40;2.87;;;;;;;;;;5069445;28;20919;-55
2022/01/02 09:50:47;;;;;;;3.10;2.80;;;;;;;;;;5069267;28;20456;-54
2022/01/02 09:53:13;;;;;;;3.20;2.87;;;;;;;;;;5069436;28;20397;-54
2022/01/02 09:55:40;;;;;;;3.13;2.90;;;;;;;;;;5069193;28;20412;-54
2022/01/02 09:58:11;;;;;;;4.63;2.93;;;;;;;;;;5068859;28;20402;-55
2022/01/02 10:00:38;;;;;;;2.47;2.30;;;;;;;;;;5068115;28;20486;-54
2022/01/02 10:03:06;;;;;;;3.23;2.50;;;;;;;;;;5069336;28;21006;-54
2022/01/02 10:05:52;;;;;;;2.90;2.47;;;;;;;;;;5068982;28;20463;-54
2022/01/02 10:08:20;;;;;;;4.87;2.50;;;;;;;;;;5068620;28;20448;-54
2022/01/02 10:10:46;;;;;;;2.67;2.43;;;;;;;;;;5068553;28;20791;-54
2022/01/02 10:13:12;;;;;;;3.27;2.80;;;;;;;;;;5068732;28;20484;-54
2022/01/02 10:15:38;;;;;;;3.10;2.80;;;;;;;;;;5068349;28;20397;-54
2022/01/02 10:18:04;;;;;;;4.20;3.00;;;;;;;;;;5068180;28;20798;-54
2022/01/02 10:20:32;;;;;;;4.10;2.53;;;;;;;;;;5068340;28;20422;-54
2022/01/02 10:23:17;;;;;;;4.20;2.80;;;;;;;;;;5068515;28;20469;-54
2022/01/02 10:25:43;;;;;;;5.00;2.83;;;;;;;;;;5068258;28;20447;-54
2022/01/02 10:28:27;;;;;;;5.60;3.37;;;;;;;;;;5067938;28;20390;-54
2022/01/02 10:31:06;;;;;;;5.80;2.87;;;;;;;;;;5068149;28;20414;-53
2022/01/02 10:33:51;;;;;;;5.00;2.73;;;;;;;;;;5068208;28;20474;-53
2022/01/02 10:36:28;;;;;;;2.80;2.60;;;;;;;;;;5056038;28;20414;-53
2022/01/02 10:39:00;;;;;;;6.40;2.60;;;;;;;;;;5068073;28;20398;-53
2022/01/02 10:41:35;;;;;;;2.80;2.57;;;;;;;;;;5066409;28;20456;-53
2022/01/02 10:44:20;;;;;;;3.27;3.00;;;;;;;;;;5067784;28;20484;-53
2022/01/02 10:47:04;;;;;;;3.60;3.30;;;;;;;;;;5067373;28;20394;-54
2022/01/02 10:49:49;;;;;;;5.27;2.97;;;;;;;;;;5068411;28;20394;-52
2022/01/02 10:52:22;;;;;;;3.20;2.90;;;;;;;;;;5067666;28;20762;-52
2022/01/02 10:54:48;;;;;;;4.27;3.87;;;;;;;;;;5067743;28;20436;-52
2022/01/02 10:57:14;;;;;;;4.70;3.10;;;;;;;;;;5053913;28;20742;-52
2022/01/02 10:59:42;;;;;;;3.23;2.93;;;;;;;;;;5054482;28;20414;-53
2022/01/02 11:02:09;;;;;;;5.77;3.50;;;;;;;;;;5054362;28;20433;-52
2022/01/02 11:04:35;;;;;;;3.10;2.90;;;;;;;;;;5054185;28;20450;-52
2022/01/02 11:07:02;;;;;;;4.30;3.40;;;;;;;;;;5054174;28;20412;-52
2022/01/02 11:09:28;;;;;;;4.23;2.60;;;;;;;;;;5054185;28;20376;-53
2022/01/02 11:11:54;;;;;;;4.20;3.37;;;;;;;;;;5054000;28;20423;-52
2022/01/02 11:14:20;;;;;;;4.97;3.97;;;;;;;;;;5054019;28;20405;-53
2022/01/02 11:16:46;;;;;;;5.53;3.80;;;;;;;;;;5053898;28;20407;-53
2022/01/02 11:19:12;;;;;;;3.57;2.90;;;;;;;;;;5054306;28;20435;-53
2022/01/02 11:21:41;;;;;;;5.30;3.50;;;;;;;;;;5053829;28;20473;-53
2022/01/02 11:24:18;;;;;;;4.27;3.70;;;;;;;;;;5053065;28;20450;-53
2022/01/02 11:26:47;;;;;;;5.60;3.50;;;;;;;;;;5050521;28;20449;-54
2022/01/02 11:29:13;;;;;;;5.73;3.50;;;;;;;;;;5052278;28;20409;-53
2022/01/02 11:31:40;;;;;;;3.33;3.03;;;;;;;;;;5052620;28;20476;-53
2022/01/02 11:34:26;;;;;;;4.73;4.23;;;;;;;;;;5053662;28;20440;-53
2022/01/02 11:36:54;;;;;;;3.80;2.97;;;;;;;;;;5053266;28;20407;-54
2022/01/02 11:39:20;;;;;;;7.80;4.07;;;;;;;;;;5053580;28;20507;-53
2022/01/02 11:41:53;;;;;;;4.23;3.60;;;;;;;;;;5053745;28;20431;-53
2022/01/02 11:44:22;;;;;;;3.77;3.47;;;;;;;;;;5053219;28;20457;-53
2022/01/02 11:46:53;;;;;;;3.90;3.47;;;;;;;;;;5053025;28;20450;-53
2022/01/02 11:49:22;;;;;;;6.27;3.40;;;;;;;;;;5053279;28;20397;-53
2022/01/02 11:51:50;;;;;;;4.10;3.63;;;;;;;;;;5053350;28;20421;-53
2022/01/02 11:54:41;;;;;;;4.40;3.73;;;;;;;;;;5053409;28;20429;-53
2022/01/02 11:57:10;;;;;;;5.77;4.13;;;;;;;;;;5053059;28;20407;-53
2022/01/02 11:59:39;;;;;;;7.13;3.47;;;;;;;;;;5053353;28;20425;-53
2022/01/02 12:02:28;;;;;;;6.07;3.87;;;;;;;;;;5053117;28;20426;-54
2022/01/02 12:07:35;;;;;;;6.77;3.70;;;;;;;;;;5052069;28;20877;-53
2022/01/02 12:10:16;;;;;;;5.37;3.90;;;;;;;;;;5053065;28;20485;-53
2022/01/02 12:15:43;;;;;;;4.27;3.67;;;;;;;;;;5053232;28;20482;-53
2022/01/02 12:18:17;;;;;;;8.27;4.33;;;;;;;;;;5048644;28;20618;-53
2022/01/02 12:20:52;;;;;;;7.80;4.60;;;;;;;;;;5052893;28;20432;-53
2022/01/02 12:23:30;;;;;;;3.97;3.67;;;;;;;;;;5052873;28;20486;-53
2022/01/02 12:26:09;;;;;;;6.60;3.40;;;;;;;;;;5052896;28;20425;-53
2022/01/02 12:28:39;;;;;;;10.00;3.90;;;;;;;;;;5052439;28;20835;-53
2022/01/02 12:31:06;;;;;;;8.60;4.00;;;;;;;;;;5052539;28;20416;-53
2022/01/02 12:33:33;;;;;;;4.53;2.70;;;;;;;;;;5052635;28;20407;-53
2022/01/02 12:36:12;;;;;;;4.83;3.77;;;;;;;;;;5052729;28;20975;-53
2022/01/02 12:39:11;;;;;;;6.80;3.83;;;;;;;;;;5052342;28;20810;-53
2022/01/02 12:41:38;;;;;;;3.20;3.00;;;;;;;;;;5040263;28;20436;-53
2022/01/02 12:44:08;;;;;;;5.80;3.50;;;;;;;;;;5052288;28;20552;-54
2022/01/02 12:46:37;;;;;;;5.20;3.47;;;;;;;;;;5052182;28;20407;-53
2022/01/02 12:49:03;;;;;;;5.67;3.20;;;;;;;;;;5052521;28;20453;-53
2022/01/02 12:51:30;;;;;;;4.87;3.53;;;;;;;;;;5052252;28;20524;-53
2022/01/02 12:54:00;;;;;;;9.40;3.67;;;;;;;;;;5052120;28;20457;-53
2022/01/02 12:56:32;;;;;;;4.00;3.60;;;;;;;;;;5052090;28;20457;-53
2022/01/02 12:59:14;;;;;;;4.93;3.70;;;;;;;;;;5052448;28;20423;-53
2022/01/02 13:01:47;;;;;;;4.00;3.30;;;;;;;;;;5050784;28;20435;-53
2022/01/02 13:04:13;;;;;;;6.00;3.40;;;;;;;;;;5052010;28;20484;-54
2022/01/02 13:06:39;;;;;;;6.93;3.23;;;;;;;;;;5050441;28;20405;-53
2022/01/02 13:09:05;;;;;;;8.40;3.03;;;;;;;;;;5052098;28;20399;-53
2022/01/02 13:11:35;;;;;;;4.67;3.90;;;;;;;;;;5052212;28;20812;-53
2022/01/02 13:14:01;;;;;;;3.53;3.23;;;;;;;;;;5052113;28;20406;-53
2022/01/02 13:16:27;;;;;;;7.60;3.67;;;;;;;;;;5051663;28;20441;-53
2022/01/02 13:18:54;;;;;;;4.53;3.80;;;;;;;;;;5051469;28;20407;-53
2022/01/02 13:21:20;;;;;;;7.20;3.50;;;;;;;;;;5051772;28;20427;-53
2022/01/02 13:23:46;;;;;;;3.70;3.23;;;;;;;;;;5051856;28;20403;-53
2022/01/02 13:26:15;;;;;;;4.03;3.00;;;;;;;;;;5051821;28;20410;-53
2022/01/02 13:28:41;;;;;;;5.10;3.57;;;;;;;;;;5051672;28;20795;-54
2022/01/02 13:31:08;;;;;;;4.43;3.20;;;;;;;;;;5051785;28;20415;-54
2022/01/02 13:33:42;;;;;;;3.23;2.93;;;;;;;;;;5051720;28;20463;-53
2022/01/02 13:36:16;;;;;;;4.90;3.10;;;;;;;;;;5051757;28;20437;-53
2022/01/02 13:38:49;;;;;;;4.10;3.47;;;;;;;;;;5051334;28;20430;-53
2022/01/02 13:41:15;;;;;;;4.40;3.43;;;;;;;;;;5050427;28;20439;-53
2022/01/02 13:43:41;;;;;;;6.93;3.60;;;;;;;;;;5051403;28;20408;-53
2022/01/02 13:46:07;;;;;;;6.40;2.90;;;;;;;;;;5051491;28;20469;-54
2022/01/02 13:48:33;;;;;;;3.13;2.83;;;;;;;;;;5051582;28;20408;-54
2022/01/02 13:50:59;;;;;;;4.50;3.57;;;;;;;;;;5051513;28;20919;-53
2022/01/02 13:53:33;;;;;;;5.80;3.40;;;;;;;;;;5051798;28;20526;-54
2022/01/02 13:56:05;;;;;;;7.97;3.23;;;;;;;;;;5051623;28;20425;-53
2022/01/02 13:58:39;;;;;;;5.97;3.57;;;;;;;;;;5050950;28;20910;-53
2022/01/02 14:01:06;;;;;;;5.60;2.73;;;;;;;;;;5051415;28;20452;-54
2022/01/02 14:03:33;;;;;;;5.60;3.10;;;;;;;;;;5051358;28;20781;-53
2022/01/02 14:06:00;;;;;;;4.00;2.93;;;;;;;;;;5051529;28;20975;-53
2022/01/02 14:08:27;;;;;;;3.60;3.00;;;;;;;;;;5051086;28;20417;-53
2022/01/02 14:11:06;;;;;;;6.47;3.10;;;;;;;;;;5051395;28;20423;-53
2022/01/02 14:13:38;;;;;;;5.00;2.93;;;;;;;;;;5051330;28;20416;-54
2022/01/02 14:16:04;;;;;;;2.93;2.40;;;;;;;;;;5051344;28;20432;-53
2022/01/02 14:18:31;;;;;;;4.13;2.93;;;;;;;;;;5050990;28;20487;-54
2022/01/02 14:21:01;;;;;;;6.77;3.17;;;;;;;;;;5051334;28;20432;-53
2022/01/02 14:23:28;;;;;;;4.80;2.90;;;;;;;;;;5051065;28;20424;-53
2022/01/02 14:25:54;;;;;;;3.70;2.90;;;;;;;;;;5051203;28;21022;-53
2022/01/02 14:28:21;;;;;;;5.87;3.40;;;;;;;;;;5051169;28;20489;-53
2022/01/02 14:30:49;;;;;;;8.70;3.03;;;;;;;;;;5051847;28;20901;-53
2022/01/02 14:33:15;;;;;;;3.97;3.13;;;;;;;;;;5055018;28;20739;-55
2022/01/02 14:35:41;;;;;;;5.00;3.33;;;;;;;;;;5054918;28;20429;-53
2022/01/02 14:38:07;;;;;;;4.33;3.20;;;;;;;;;;5054565;28;20446;-53
2022/01/02 14:40:34;;;;;;;6.83;3.07;;;;;;;;;;5054730;28;20419;-53
2022/01/02 14:42:59;;;;;;;5.80;3.03;;;;;;;;;;5055232;28;20591;-53
2022/01/02 14:45:25;;;;;;;5.10;2.80;;;;;;;;;;5054556;28;20459;-53
2022/01/02 14:47:52;;;;;;;3.40;3.10;;;;;;;;;;5054574;28;20880;-53
2022/01/02 14:50:18;;;;;;;5.93;2.97;;;;;;;;;;5054592;28;20426;-54
2022/01/02 14:52:45;;;;;;;7.40;3.10;;;;;;;;;;5054305;28;20406;-53
2022/01/02 14:55:14;;;;;;;6.47;3.80;;;;;;;;;;5054512;28;20409;-55
2022/01/02 14:57:40;;;;;;;3.87;3.10;;;;;;;;;;5054171;28;20488;-54